createdAt,value
2022-09-13T00:00:02.794Z,14.70
2022-09-13T00:05:04.463Z,13.23
2022-09-13T00:10:06.151Z,13.10
2022-09-13T00:15:08.897Z,12.82
2022-09-13T00:20:10.674Z,12.00
2022-09-13T00:25:12.369Z,11.60
2022-09-13T00:30:14.064Z,11.70
2022-09-13T00:35:15.554Z,11.18
2022-09-13T00:40:17.206Z,11.02
2022-09-13T00:45:19.197Z,9.52
2022-09-13T00:50:39.020Z,9.65
2022-09-13T00:56:09.793Z,10.45
2022-09-13T01:01:14.645Z,10.05
2022-09-13T01:06:20.570Z,9.93
2022-09-13T01:11:40.641Z,9.43
2022-09-13T01:16:44.802Z,9.45
2022-09-13T01:22:18.231Z,9.60
2022-09-13T01:27:34.756Z,8.55
2022-09-13T01:32:58.068Z,7.83
2022-09-13T01:38:11.668Z,8.10
2022-09-13T01:43:42.922Z,8.77
2022-09-13T01:49:00.830Z,9.25
2022-09-13T01:54:09.470Z,8.93
2022-09-13T01:59:24.166Z,9.15
2022-09-13T02:04:30.102Z,8.45
2022-09-13T02:09:37.238Z,8.70
2022-09-13T02:19:55.036Z,9.13
2022-09-13T02:25:02.536Z,10.18
2022-09-13T02:30:10.290Z,9.40
2022-09-13T02:35:18.826Z,9.68
2022-09-13T02:40:26.768Z,9.48
2022-09-13T02:45:35.734Z,9.65
2022-09-13T02:51:01.458Z,9.40
2022-09-13T02:56:34.398Z,10.35
2022-09-13T03:01:37.392Z,10.40
2022-09-13T03:06:41.245Z,9.30
2022-09-13T03:12:01.332Z,9.18
2022-09-13T03:17:34.614Z,9.70
2022-09-13T03:22:52.598Z,9.88
2022-09-13T03:28:08.785Z,8.38
2022-09-13T03:33:35.518Z,8.77
2022-09-13T03:38:51.808Z,7.93
2022-09-13T03:43:59.104Z,7.80
2022-09-13T03:49:08.887Z,9.70
2022-09-13T03:54:16.597Z,8.52
2022-09-13T03:59:18.253Z,9.32
2022-09-13T04:04:19.772Z,9.70
2022-09-13T04:09:21.217Z,9.63
2022-09-13T04:14:23.024Z,9.50
2022-09-13T04:19:25.649Z,8.90
2022-09-13T04:24:29.091Z,10.35
2022-09-13T04:29:31.792Z,7.43
2022-09-13T04:34:33.423Z,3.83
2022-09-13T04:39:34.952Z,2.50
2022-09-13T04:44:36.512Z,2.53
2022-09-13T04:49:38.074Z,1.58
2022-09-13T04:54:39.549Z,1.27
2022-09-13T04:59:40.997Z,1.10
2022-09-13T05:04:42.466Z,0.80
2022-09-13T05:09:43.938Z,1.13
2022-09-13T05:14:45.442Z,0.98
2022-09-13T05:19:47.754Z,1.83
2022-09-13T05:24:49.418Z,1.80
2022-09-13T05:29:50.898Z,1.50
2022-09-13T05:34:52.460Z,1.88
2022-09-13T05:40:10.554Z,1.80
2022-09-13T05:45:12.926Z,1.50
2022-09-13T05:50:32.883Z,1.20
2022-09-13T05:55:35.877Z,3.15
2022-09-13T06:00:37.929Z,1.58
2022-09-13T06:05:39.423Z,1.88
2022-09-13T06:10:40.950Z,1.48
2022-09-13T06:15:43.395Z,1.90
2022-09-13T06:20:45.381Z,1.75
2022-09-13T06:25:46.909Z,1.98
2022-09-13T06:30:48.317Z,1.50
2022-09-13T06:35:49.778Z,8.30
2022-09-13T06:41:00.462Z,5.32
2022-09-13T06:46:10.657Z,1.67
2022-09-13T06:51:14.860Z,2.20
2022-09-13T06:56:19.758Z,1.48
2022-09-13T07:01:30.674Z,1.80
2022-09-13T07:06:35.471Z,1.13
2022-09-13T07:11:40.573Z,2.05
2022-09-13T07:16:42.128Z,1.50
2022-09-13T07:21:44.001Z,1.10
2022-09-13T07:26:46.709Z,1.35
2022-09-13T07:31:53.098Z,1.58
2022-09-13T07:36:54.877Z,1.57
2022-09-13T07:41:56.351Z,1.23
2022-09-13T07:46:57.869Z,1.17
2022-09-13T07:51:59.341Z,1.08
2022-09-13T07:57:00.790Z,0.90
2022-09-13T08:02:02.364Z,1.73
2022-09-13T08:07:03.953Z,1.25
2022-09-13T08:12:05.494Z,0.90
2022-09-13T08:17:06.946Z,0.85
2022-09-13T08:22:08.413Z,1.75
2022-09-13T08:27:09.879Z,0.90
2022-09-13T08:32:11.342Z,1.40
2022-09-13T08:37:12.891Z,1.13
2022-09-13T08:42:24.350Z,0.77
2022-09-13T08:47:43.698Z,0.80
2022-09-13T08:52:52.121Z,0.98
2022-09-13T08:58:32.234Z,1.05
2022-09-13T09:03:46.728Z,0.70
2022-09-13T09:09:06.110Z,1.23
2022-09-13T09:14:33.457Z,0.70
2022-09-13T09:19:40.767Z,0.77
2022-09-13T09:24:50.856Z,0.80
2022-09-13T09:29:58.057Z,0.85
2022-09-13T09:35:21.126Z,0.73
2022-09-13T09:40:22.664Z,0.98
2022-09-13T09:45:27.920Z,1.50
2022-09-13T09:50:34.190Z,1.30
2022-09-13T09:55:41.505Z,1.00
2022-09-13T10:00:57.309Z,0.90
2022-09-13T10:06:18.561Z,0.80
2022-09-13T10:11:22.233Z,0.85
2022-09-13T10:16:27.969Z,1.13
2022-09-13T10:21:29.997Z,0.82
2022-09-13T10:26:33.748Z,0.93
2022-09-13T10:31:41.672Z,0.85
2022-09-13T10:36:59.690Z,0.90
2022-09-13T10:42:05.187Z,2.33
2022-09-13T10:47:13.367Z,0.88
2022-09-13T10:52:43.168Z,1.00
2022-09-13T10:57:46.483Z,0.80
2022-09-13T11:03:30.918Z,0.82
2022-09-13T11:08:47.382Z,0.80
2022-09-13T11:13:48.770Z,2.10
2022-09-13T11:19:07.173Z,1.20
2022-09-13T11:24:08.633Z,0.98
2022-09-13T11:29:25.330Z,1.00
2022-09-13T11:34:40.224Z,1.10
2022-09-13T11:39:50.202Z,0.80
2022-09-13T11:45:00.711Z,1.00
2022-09-13T11:50:40.201Z,0.82
2022-09-13T11:55:47.713Z,0.70
2022-09-13T12:00:58.420Z,0.90
2022-09-13T12:06:05.237Z,0.60
2022-09-13T12:16:26.837Z,0.90
2022-09-13T12:21:37.815Z,0.90
2022-09-13T12:26:56.705Z,0.98
2022-09-13T12:32:05.399Z,0.90
2022-09-13T12:37:27.040Z,0.90
2022-09-13T12:42:57.401Z,0.95
2022-09-13T12:48:40.394Z,0.65
2022-09-13T12:54:10.988Z,0.95
2022-09-13T12:59:48.592Z,1.42
2022-09-13T13:09:56.966Z,0.77
2022-09-13T13:15:01.375Z,0.68
2022-09-13T13:20:41.045Z,1.27
2022-09-13T13:25:56.263Z,0.93
2022-09-13T13:30:59.048Z,1.00
2022-09-13T13:36:24.277Z,1.05
2022-09-13T13:41:40.785Z,0.90
2022-09-13T13:46:42.722Z,0.83
2022-09-13T13:51:44.207Z,1.20
2022-09-13T13:56:49.131Z,0.95
2022-09-13T14:01:55.561Z,1.15
2022-09-13T14:07:20.238Z,1.10
2022-09-13T14:12:43.052Z,0.88
2022-09-13T14:18:08.968Z,1.75
2022-09-13T14:23:20.444Z,1.50
2022-09-13T14:28:23.391Z,1.20
2022-09-13T14:33:34.572Z,1.27
2022-09-13T14:38:37.004Z,1.17
2022-09-13T14:43:38.807Z,1.30
2022-09-13T14:48:54.837Z,1.27
2022-09-13T14:54:07.054Z,1.45
2022-09-13T14:59:24.501Z,1.45
2022-09-13T15:04:28.082Z,1.52
2022-09-13T15:09:29.680Z,1.73
2022-09-13T15:14:35.065Z,1.90
2022-09-13T15:19:41.877Z,1.40
2022-09-13T15:24:49.945Z,1.58
2022-09-13T15:30:01.282Z,1.30
2022-09-13T15:35:02.939Z,1.42
2022-09-13T15:40:17.761Z,1.10
2022-09-13T15:45:20.999Z,1.40
2022-09-13T15:50:31.002Z,1.25
2022-09-13T15:55:32.591Z,1.23
2022-09-13T16:00:34.113Z,1.10
2022-09-13T16:05:36.615Z,1.65
2022-09-13T16:10:38.138Z,1.25
2022-09-13T16:15:39.707Z,1.55
2022-09-13T16:20:41.162Z,1.30
2022-09-13T16:25:43.316Z,1.20
2022-09-13T16:30:44.762Z,0.70
2022-09-13T16:35:46.867Z,1.30
2022-09-13T16:40:49.122Z,1.10
2022-09-13T16:45:51.445Z,1.48
2022-09-13T16:50:52.873Z,1.10
2022-09-13T16:56:11.367Z,1.35
2022-09-13T17:01:15.068Z,1.40
2022-09-13T17:06:18.225Z,1.08
2022-09-13T17:11:21.835Z,1.10
2022-09-13T17:16:25.801Z,1.40
2022-09-13T17:21:28.342Z,1.13
2022-09-13T17:26:29.923Z,1.20
2022-09-13T17:31:31.508Z,1.77
2022-09-13T17:36:33.054Z,1.27
2022-09-13T17:41:35.049Z,1.17
2022-09-13T17:46:36.600Z,1.92
2022-09-13T17:51:38.120Z,1.15
2022-09-13T17:56:42.588Z,1.40
2022-09-13T18:01:49.638Z,1.10
2022-09-13T18:06:52.436Z,2.17
2022-09-13T18:11:53.927Z,1.48
2022-09-13T18:16:57.278Z,0.95
2022-09-13T18:22:01.393Z,0.90
2022-09-13T18:27:03.675Z,1.23
2022-09-13T18:32:05.251Z,1.67
2022-09-13T18:37:06.732Z,1.10
2022-09-13T18:42:08.396Z,1.42
2022-09-13T18:47:13.750Z,0.98
2022-09-13T18:52:16.427Z,1.30
2022-09-13T18:57:18.656Z,1.13
2022-09-13T19:02:21.044Z,1.23
2022-09-13T19:07:23.666Z,0.85
2022-09-13T19:12:25.705Z,1.23
2022-09-13T19:17:27.275Z,0.82
2022-09-13T19:22:28.922Z,1.13
2022-09-13T19:27:30.495Z,1.05
2022-09-13T19:32:33.728Z,0.80
2022-09-13T19:37:35.317Z,1.65
2022-09-13T19:42:36.799Z,1.02
2022-09-13T19:48:34.641Z,0.90
2022-09-13T19:52:59.893Z,1.13
2022-09-13T19:58:01.394Z,1.58
2022-09-13T20:03:03.560Z,1.25
2022-09-13T20:08:05.206Z,2.00
2022-09-13T20:13:06.669Z,1.35
2022-09-13T20:18:13.171Z,1.40
2022-09-13T20:23:17.220Z,1.00
2022-09-13T20:28:21.298Z,0.93
2022-09-13T20:33:23.166Z,0.80
2022-09-13T20:38:25.586Z,1.45
2022-09-13T20:43:27.308Z,1.67
2022-09-13T20:48:28.942Z,1.80
2022-09-13T20:53:30.620Z,1.75
2022-09-13T20:58:32.249Z,1.73
2022-09-13T21:03:38.852Z,0.90
2022-09-13T21:08:43.729Z,1.77
2022-09-13T21:13:47.548Z,1.83
2022-09-13T21:18:50.051Z,1.50
2022-09-13T21:23:52.139Z,1.40
2022-09-13T21:28:55.496Z,2.28
2022-09-13T21:34:08.472Z,2.10
2022-09-13T21:39:10.629Z,1.40
2022-09-13T21:44:12.143Z,2.17
2022-09-13T21:49:13.698Z,1.30
2022-09-13T21:54:17.555Z,1.20
2022-09-13T21:59:20.743Z,1.83
2022-09-13T22:04:25.272Z,2.03
2022-09-13T22:09:27.534Z,1.77
2022-09-13T22:14:29.136Z,1.67
2022-09-13T22:19:31.646Z,2.50
2022-09-13T22:24:35.669Z,1.20
2022-09-13T22:29:37.241Z,1.52
2022-09-13T22:34:38.770Z,1.42
2022-09-13T22:39:40.281Z,2.05
2022-09-13T22:44:41.985Z,1.60
2022-09-13T22:49:43.449Z,1.38
2022-09-13T22:54:45.937Z,1.27
2022-09-13T22:59:47.595Z,1.10
2022-09-13T23:04:49.090Z,2.30
2022-09-13T23:09:50.530Z,1.33
2022-09-13T23:14:51.958Z,1.40
2022-09-13T23:19:53.421Z,2.25
2022-09-13T23:24:54.895Z,1.27
2022-09-13T23:29:56.734Z,0.93
2022-09-13T23:34:58.190Z,1.30
2022-09-13T23:40:01.429Z,1.38
2022-09-13T23:45:03.167Z,1.40
2022-09-13T23:50:05.003Z,1.20
2022-09-13T23:55:07.181Z,1.20
